Time;durP1;ratioP1;P1;durP2;ratioP2;P2;SDS_P1;SDS_P2;PMS_P1;PMS_P2;Temp;Humidity;BMP_temperature;BMP_pressure;BME280_temperature;BME280_humidity;BME280_pressure;Samples;Min_cycle;Max_cycle;Signal;HPM_P1;HPM_P2
2023/12/19 00:02:13;;;;;;;14.25;6.88;;;-0.60;99.90;;;;;;5004950;28;20129;-62
2023/12/19 00:04:40;;;;;;;17.55;6.20;;;-0.60;99.90;;;;;;5009144;28;20046;-61
2023/12/19 00:07:06;;;;;;;17.23;6.50;;;-0.60;99.90;;;;;;5007617;28;20040;-62
2023/12/19 00:09:33;;;;;;;13.50;6.10;;;-0.50;99.90;;;;;;5010385;28;20038;-61
2023/12/19 00:12:00;;;;;;;12.50;5.97;;;-0.50;99.90;;;;;;5012708;28;20061;-62
2023/12/19 00:14:27;;;;;;;12.00;5.78;;;-0.40;99.90;;;;;;5012443;28;20622;-62
2023/12/19 00:16:53;;;;;;;15.98;6.47;;;-0.30;99.90;;;;;;5012715;28;20458;-63
2023/12/19 00:19:20;;;;;;;14.90;5.57;;;-0.40;99.90;;;;;;5007599;28;20050;-63
2023/12/19 00:21:47;;;;;;;17.98;6.60;;;-0.40;99.90;;;;;;5012704;28;20117;-61
2023/12/19 00:24:14;;;;;;;17.15;7.35;;;-0.40;99.90;;;;;;5012725;28;20065;-61
2023/12/19 00:26:41;;;;;;;19.00;8.05;;;-0.50;99.90;;;;;;5012080;28;20038;-62
2023/12/19 00:29:07;;;;;;;14.40;7.05;;;-0.50;99.90;;;;;;5011294;28;20042;-61
2023/12/19 00:31:34;;;;;;;19.65;9.60;;;-0.50;99.90;;;;;;5012401;28;20407;-63
2023/12/19 00:34:01;;;;;;;14.70;6.78;;;-0.40;99.90;;;;;;5012255;28;20045;-63
2023/12/19 00:36:28;;;;;;;32.70;8.52;;;-0.40;99.90;;;;;;5007150;28;20177;-63
2023/12/19 00:38:55;;;;;;;16.52;6.45;;;-0.50;99.90;;;;;;5012538;28;20117;-63
2023/12/19 00:41:22;;;;;;;13.75;6.60;;;-0.40;99.90;;;;;;5011804;28;20064;-63
2023/12/19 00:43:49;;;;;;;12.25;5.97;;;-0.40;99.90;;;;;;5011697;28;20042;-63
2023/12/19 00:46:16;;;;;;;16.63;6.25;;;-0.40;99.90;;;;;;5005937;28;20052;-62
2023/12/19 00:48:42;;;;;;;19.67;7.93;;;-0.30;99.90;;;;;;5007477;28;20041;-63
2023/12/19 00:51:10;;;;;;;15.70;7.28;;;-0.30;99.90;;;;;;5010593;28;20034;-63
2023/12/19 00:53:38;;;;;;;17.02;7.20;;;-0.30;99.90;;;;;;5011377;28;20482;-63
2023/12/19 00:56:07;;;;;;;14.23;7.13;;;-0.40;99.90;;;;;;5009195;28;20049;-62
2023/12/19 00:58:36;;;;;;;18.75;7.13;;;-0.50;99.90;;;;;;5010586;28;20596;-61
2023/12/19 01:01:04;;;;;;;15.60;7.07;;;-0.60;99.90;;;;;;5007517;28;20065;-62
2023/12/19 01:03:31;;;;;;;18.05;7.05;;;-0.70;99.90;;;;;;5012048;28;20069;-63
2023/12/19 01:06:00;;;;;;;14.77;8.05;;;-0.70;99.90;;;;;;5005337;28;20109;-62
2023/12/19 01:08:28;;;;;;;17.05;7.13;;;-0.70;99.90;;;;;;5011375;28;20112;-62
2023/12/19 01:10:55;;;;;;;;;;;-0.70;99.90;;;;;;5012159;28;20052;-63
2023/12/19 01:13:22;;;;;;;12.57;6.00;;;-0.60;99.90;;;;;;5005144;28;19922;-63
2023/12/19 01:15:49;;;;;;;16.25;6.32;;;-0.60;99.90;;;;;;5003656;28;20038;-62
2023/12/19 01:18:16;;;;;;;10.80;4.90;;;-0.60;99.90;;;;;;5011861;28;20057;-63
2023/12/19 01:20:44;;;;;;;11.55;5.60;;;-0.70;99.90;;;;;;5009410;28;20053;-62
2023/12/19 01:23:11;;;;;;;14.52;5.93;;;-0.70;99.90;;;;;;5000294;28;20543;-62
2023/12/19 01:25:39;;;;;;;11.68;5.43;;;-0.70;99.90;;;;;;5011688;28;20409;-62
2023/12/19 01:28:06;;;;;;;11.55;5.28;;;-0.70;99.90;;;;;;5011678;28;20502;-63
2023/12/19 01:30:38;;;;;;;11.52;6.47;;;-0.70;99.90;;;;;;5011875;28;20037;-63
2023/12/19 01:33:06;;;;;;;12.20;6.15;;;-0.70;99.90;;;;;;5005892;28;20050;-63
2023/12/19 01:35:33;;;;;;;15.45;7.45;;;-0.60;99.90;;;;;;5010627;28;20048;-63
2023/12/19 01:38:01;;;;;;;13.13;5.88;;;-0.60;99.90;;;;;;5011855;28;20065;-63
2023/12/19 01:40:34;;;;;;;15.77;6.95;;;-0.60;99.90;;;;;;5005072;28;20133;-62
2023/12/19 01:43:01;;;;;;;14.93;6.43;;;-0.70;99.90;;;;;;5011819;28;20052;-62
2023/12/19 01:45:29;;;;;;;9.63;5.75;;;-0.70;99.90;;;;;;5010935;28;20538;-63
2023/12/19 01:47:57;;;;;;;14.52;6.00;;;-0.80;99.90;;;;;;4998339;28;20633;-63
2023/12/19 01:50:24;;;;;;;15.80;6.30;;;-0.80;99.90;;;;;;5011404;28;20463;-63
2023/12/19 01:52:57;;;;;;;14.85;6.80;;;-0.70;99.90;;;;;;5010189;28;20037;-63
2023/12/19 01:55:27;;;;;;;13.20;6.78;;;-0.70;99.90;;;;;;5005644;28;20427;-62
2023/12/19 01:57:55;;;;;;;15.13;6.90;;;-0.60;99.90;;;;;;5011624;28;20140;-63
2023/12/19 02:00:23;;;;;;;14.60;6.43;;;-0.70;99.90;;;;;;5011580;28;20077;-63
2023/12/19 02:02:51;;;;;;;8.10;3.72;;;-0.70;99.90;;;;;;5005441;28;20487;-61
2023/12/19 02:05:20;;;;;;;12.02;3.88;;;-0.80;99.90;;;;;;5011286;28;20073;-63
2023/12/19 02:07:48;;;;;;;11.77;4.70;;;-0.90;99.90;;;;;;5010914;28;20049;-63
2023/12/19 02:10:15;;;;;;;9.50;4.93;;;-0.90;99.90;;;;;;5011520;28;20038;-63
2023/12/19 02:12:42;;;;;;;10.18;4.93;;;-0.90;99.90;;;;;;5006203;28;20503;-63
2023/12/19 02:15:12;;;;;;;8.75;4.30;;;-0.90;99.90;;;;;;5008780;28;20065;-63
2023/12/19 02:17:40;;;;;;;11.57;4.60;;;-0.80;99.90;;;;;;5009313;28;20045;-62
2023/12/19 02:20:07;;;;;;;7.57;3.53;;;-0.90;99.90;;;;;;5011492;28;20045;-62
2023/12/19 02:22:34;;;;;;;;;;;-1.00;99.90;;;;;;5011170;28;20121;-63
2023/12/19 02:25:01;;;;;;;7.43;3.42;;;-1.10;99.90;;;;;;5002993;28;19929;-62
2023/12/19 02:27:29;;;;;;;6.93;3.58;;;-1.00;99.90;;;;;;5008924;28;20038;-63
2023/12/19 02:29:56;;;;;;;6.68;3.63;;;-1.00;99.90;;;;;;5002895;28;20042;-63
2023/12/19 02:32:22;;;;;;;8.55;4.57;;;-0.90;99.90;;;;;;5011003;28;20042;-62
2023/12/19 02:34:49;;;;;;;8.90;4.60;;;-0.90;99.90;;;;;;5009516;28;20065;-63
2023/12/19 02:37:16;;;;;;;9.88;4.82;;;-0.80;99.90;;;;;;5015086;28;20046;-63
2023/12/19 02:39:43;;;;;;;11.68;4.78;;;-0.70;99.90;;;;;;5014022;28;20550;-63
2023/12/19 02:42:10;;;;;;;11.40;5.50;;;-0.60;99.90;;;;;;5011090;28;20038;-63
2023/12/19 02:44:37;;;;;;;9.18;4.80;;;-0.60;99.90;;;;;;5014204;28;20049;-63
2023/12/19 02:47:04;;;;;;;10.95;5.53;;;-0.70;99.90;;;;;;5014715;28;20072;-63
2023/12/19 02:49:30;;;;;;;10.60;5.43;;;-0.70;99.90;;;;;;5013865;28;20045;-63
2023/12/19 02:51:58;;;;;;;11.43;5.55;;;-0.70;99.90;;;;;;5006690;28;20045;-63
2023/12/19 02:54:25;;;;;;;13.88;6.25;;;-0.80;99.90;;;;;;5009292;28;20526;-63
2023/12/19 02:56:52;;;;;;;12.93;7.03;;;-0.80;99.90;;;;;;5006799;28;20054;-63
2023/12/19 02:59:19;;;;;;;12.93;6.07;;;-0.80;99.90;;;;;;5013488;28;20049;-63
2023/12/19 03:01:47;;;;;;;13.77;6.35;;;-0.70;99.90;;;;;;5012229;28;20491;-63
2023/12/19 03:04:14;;;;;;;11.52;6.47;;;-0.60;99.90;;;;;;5002894;28;20115;-61
2023/12/19 03:06:42;;;;;;;11.32;6.40;;;-0.60;99.90;;;;;;5014135;28;20486;-64
2023/12/19 03:09:09;;;;;;;11.95;6.10;;;-0.60;99.90;;;;;;5014368;28;20033;-63
2023/12/19 03:11:39;;;;;;;14.85;6.72;;;-0.50;99.90;;;;;;5014326;28;20447;-63
2023/12/19 03:14:06;;;;;;;12.77;6.38;;;-0.60;99.90;;;;;;5010855;28;20042;-62
2023/12/19 03:16:33;;;;;;;15.27;6.93;;;-0.60;99.90;;;;;;5007140;28;20050;-63
2023/12/19 03:19:00;;;;;;;12.25;6.50;;;-0.60;99.90;;;;;;5014209;28;20053;-63
2023/12/19 03:21:27;;;;;;;12.75;6.68;;;-0.60;99.90;;;;;;5007001;28;20534;-62
2023/12/19 03:23:54;;;;;;;11.65;6.07;;;-0.50;99.90;;;;;;5012078;28;20549;-63
2023/12/19 03:26:20;;;;;;;10.48;6.30;;;-0.50;99.90;;;;;;5013528;28;20490;-63
2023/12/19 03:28:47;;;;;;;9.10;4.93;;;-0.50;99.90;;;;;;5007178;28;20064;-63
2023/12/19 03:31:16;;;;;;;11.43;6.45;;;-0.50;99.90;;;;;;5011702;28;20048;-62
2023/12/19 03:33:43;;;;;;;12.52;6.07;;;-0.40;99.90;;;;;;5013718;28;20399;-62
2023/12/19 03:36:10;;;;;;;10.93;6.25;;;-0.40;99.90;;;;;;5013345;28;20069;-62
2023/12/19 03:38:37;;;;;;;17.00;6.75;;;-0.30;99.90;;;;;;5011291;28;20085;-62
2023/12/19 03:41:05;;;;;;;11.10;7.03;;;-0.30;99.90;;;;;;5013518;28;20034;-63
2023/12/19 03:43:33;;;;;;;13.75;7.05;;;-0.20;99.90;;;;;;5013431;28;20042;-63
2023/12/19 03:46:02;;;;;;;14.60;7.30;;;-0.20;99.90;;;;;;5012135;28;20042;-63
2023/12/19 03:48:29;;;;;;;16.85;8.82;;;-0.10;99.90;;;;;;5013643;28;20046;-63
2023/12/19 03:50:56;;;;;;;18.10;7.75;;;0.00;99.90;;;;;;5013258;28;20506;-63
2023/12/19 03:53:23;;;;;;;13.25;7.88;;;0.00;99.90;;;;;;5004963;28;20364;-63
2023/12/19 03:55:50;;;;;;;17.00;8.20;;;0.00;99.90;;;;;;5012716;28;20470;-63
2023/12/19 03:58:17;;;;;;;;;;;0.00;99.90;;;;;;5007362;28;20406;-63
2023/12/19 04:00:44;;;;;;;12.68;6.93;;;-0.10;99.90;;;;;;5010492;28;19968;-63
2023/12/19 04:03:11;;;;;;;13.88;7.65;;;0.00;99.90;;;;;;5009691;28;20073;-62
2023/12/19 04:05:38;;;;;;;16.33;7.07;;;0.00;99.90;;;;;;5007610;28;20038;-63
2023/12/19 04:08:05;;;;;;;15.05;7.00;;;0.00;99.90;;;;;;5013299;28;20030;-63
2023/12/19 04:10:31;;;;;;;13.43;6.60;;;-0.10;99.90;;;;;;5010775;28;20041;-63
2023/12/19 04:12:58;;;;;;;12.13;6.95;;;-0.20;99.90;;;;;;5013123;28;20054;-63
2023/12/19 04:15:25;;;;;;;15.00;7.72;;;-0.30;99.90;;;;;;5013589;28;20053;-63
2023/12/19 04:17:52;;;;;;;15.52;6.72;;;-0.40;99.90;;;;;;5014441;28;20392;-62
2023/12/19 04:20:19;;;;;;;16.27;6.60;;;-0.30;99.90;;;;;;5006040;28;20475;-63
2023/12/19 04:22:46;;;;;;;12.25;6.90;;;-0.40;99.90;;;;;;5013039;28;20052;-63
2023/12/19 04:25:13;;;;;;;15.73;6.90;;;-0.40;99.90;;;;;;5012845;28;20395;-63
2023/12/19 04:27:40;;;;;;;15.30;7.07;;;-0.50;99.90;;;;;;5008125;28;20092;-63
2023/12/19 04:30:07;;;;;;;11.75;7.00;;;-0.60;99.90;;;;;;5004827;28;20037;-63
2023/12/19 04:32:34;;;;;;;12.57;6.85;;;-0.60;99.90;;;;;;5012571;28;20030;-63
2023/12/19 04:35:03;;;;;;;14.90;7.10;;;-0.60;99.90;;;;;;5007991;28;20080;-63
2023/12/19 04:37:30;;;;;;;15.30;7.53;;;-0.70;99.90;;;;;;5009960;28;20046;-63
2023/12/19 04:39:57;;;;;;;7.53;3.97;;;-0.70;99.90;;;;;;5011450;28;20375;-63
2023/12/19 04:42:24;;;;;;;7.22;3.15;;;-0.70;99.90;;;;;;5004662;28;20042;-62
2023/12/19 04:44:51;;;;;;;4.50;2.85;;;-0.70;99.90;;;;;;5012093;28;20497;-63
2023/12/19 04:47:18;;;;;;;5.30;2.55;;;-0.70;99.90;;;;;;5010776;28;20045;-63
2023/12/19 04:49:45;;;;;;;3.85;2.40;;;-0.80;99.90;;;;;;5008861;28;20034;-62
2023/12/19 04:52:12;;;;;;;5.03;2.40;;;-0.70;99.90;;;;;;5012197;28;20128;-63
2023/12/19 04:54:39;;;;;;;5.43;3.33;;;-0.80;99.90;;;;;;5010366;28;20486;-62
2023/12/19 04:57:06;;;;;;;5.50;2.40;;;-0.70;99.90;;;;;;5010893;28;20037;-63
2023/12/19 04:59:33;;;;;;;5.60;3.40;;;-0.70;99.90;;;;;;5010194;28;20050;-63
2023/12/19 05:02:01;;;;;;;8.25;3.97;;;-0.60;99.90;;;;;;5010642;28;20460;-63
2023/12/19 05:04:28;;;;;;;7.03;4.00;;;-0.60;99.90;;;;;;5007137;28;20387;-63
2023/12/19 05:06:55;;;;;;;9.55;4.90;;;-0.60;99.90;;;;;;5011679;28;20050;-63
2023/12/19 05:09:22;;;;;;;11.68;5.95;;;-0.60;99.90;;;;;;5009226;28;20395;-63
2023/12/19 05:11:49;;;;;;;15.48;7.10;;;-0.60;99.90;;;;;;5009894;28;20564;-63
2023/12/19 05:14:15;;;;;;;14.10;6.55;;;-0.50;99.90;;;;;;5011668;28;20501;-62
2023/12/19 05:16:42;;;;;;;16.45;6.93;;;-0.60;99.90;;;;;;5011021;28;20124;-63
2023/12/19 05:19:09;;;;;;;16.38;8.38;;;-0.60;99.90;;;;;;5004759;28;20044;-63
2023/12/19 05:21:38;;;;;;;13.20;5.38;;;-0.60;99.90;;;;;;4998079;28;20061;-63
2023/12/19 05:24:05;;;;;;;9.82;4.70;;;-0.60;99.90;;;;;;5009070;28;20038;-63
2023/12/19 05:26:32;;;;;;;10.48;5.30;;;-0.80;99.90;;;;;;5002327;28;20045;-63
2023/12/19 05:28:59;;;;;;;8.57;4.85;;;-1.00;99.90;;;;;;5010675;28;20038;-63
2023/12/19 05:31:26;;;;;;;12.50;6.13;;;-1.10;99.90;;;;;;5008629;28;20558;-61
2023/12/19 05:33:54;;;;;;;15.40;6.15;;;-1.10;99.90;;;;;;5007734;28;20053;-60
2023/12/19 05:36:22;;;;;;;12.55;6.60;;;-1.10;99.90;;;;;;5010327;28;20048;-62
2023/12/19 05:38:49;;;;;;;13.30;7.07;;;-1.00;99.90;;;;;;5010441;28;20049;-63
2023/12/19 05:41:16;;;;;;;17.75;7.13;;;-1.00;99.90;;;;;;5006578;28;20046;-63
2023/12/19 05:43:43;;;;;;;10.18;6.63;;;-1.00;99.90;;;;;;5008617;28;20073;-63
2023/12/19 05:46:10;;;;;;;12.48;6.53;;;-0.90;99.90;;;;;;5009363;28;20137;-61
2023/12/19 05:48:37;;;;;;;7.75;3.90;;;-0.90;99.90;;;;;;5010904;28;20050;-62
2023/12/19 05:51:04;;;;;;;;;;;-1.10;99.90;;;;;;5009825;28;20049;-62
2023/12/19 05:53:31;;;;;;;11.10;4.53;;;-1.20;99.90;;;;;;5010400;28;19922;-61
2023/12/19 05:55:58;;;;;;;12.00;5.13;;;-1.30;99.90;;;;;;5010335;28;20050;-63
2023/12/19 05:58:25;;;;;;;7.80;4.80;;;-1.30;99.90;;;;;;5008209;28;20042;-60
2023/12/19 06:00:55;;;;;;;11.00;4.85;;;-1.40;99.90;;;;;;5005319;28;20395;-62
2023/12/19 06:03:23;;;;;;;13.43;5.95;;;-1.40;99.90;;;;;;5010404;28;20080;-63
2023/12/19 06:05:50;;;;;;;20.35;9.55;;;-1.40;99.90;;;;;;5010151;28;20050;-61
2023/12/19 06:08:17;;;;;;;24.90;11.05;;;-1.30;99.90;;;;;;4998594;28;20038;-61
2023/12/19 06:10:44;;;;;;;23.20;11.07;;;-1.20;99.90;;;;;;5014605;28;20049;-62
2023/12/19 06:13:11;;;;;;;18.92;9.88;;;-1.20;99.90;;;;;;5013826;28;20115;-63
2023/12/19 06:15:38;;;;;;;19.42;7.65;;;-1.20;99.90;;;;;;5011352;28;20050;-62
2023/12/19 06:18:06;;;;;;;18.13;8.60;;;-1.20;99.90;;;;;;5013326;28;20049;-62
2023/12/19 06:20:33;;;;;;;17.42;7.72;;;-1.20;99.90;;;;;;5011947;28;20458;-62
2023/12/19 06:23:00;;;;;;;13.75;7.20;;;-1.20;99.90;;;;;;5011977;28;20046;-63
2023/12/19 06:25:26;;;;;;;18.23;8.55;;;-1.20;99.90;;;;;;5008297;28;20048;-63
2023/12/19 06:27:56;;;;;;;22.23;10.43;;;-1.10;99.90;;;;;;5013926;28;20042;-63
2023/12/19 06:30:23;;;;;;;26.05;10.63;;;-1.10;99.90;;;;;;5014552;28;20034;-63
2023/12/19 06:32:58;;;;;;;25.75;10.98;;;-1.10;99.90;;;;;;5001675;28;20049;-62
2023/12/19 06:35:28;;;;;;;23.88;10.13;;;-1.20;99.90;;;;;;5008934;28;20494;-63
2023/12/19 06:37:55;;;;;;;21.88;9.68;;;-1.20;99.90;;;;;;5013782;28;20048;-61
2023/12/19 06:40:23;;;;;;;44.67;15.75;;;-1.20;99.90;;;;;;5013329;28;20051;-63
2023/12/19 06:42:50;;;;;;;36.30;14.55;;;-1.20;99.90;;;;;;5012013;28;20054;-63
2023/12/19 06:45:18;;;;;;;29.90;12.63;;;-1.20;99.90;;;;;;5014346;28;20525;-62
2023/12/19 06:47:46;;;;;;;15.52;6.35;;;-1.20;99.90;;;;;;5014399;28;20033;-61
2023/12/19 06:50:13;;;;;;;11.98;5.65;;;-1.20;99.90;;;;;;5008403;28;20506;-61
2023/12/19 06:52:40;;;;;;;20.38;8.88;;;-1.10;99.90;;;;;;5013613;28;20045;-63
2023/12/19 06:55:11;;;;;;;37.10;14.43;;;-1.10;99.90;;;;;;5012572;28;20046;-63
2023/12/19 06:57:38;;;;;;;42.53;16.08;;;-1.00;99.90;;;;;;5013875;28;20053;-63
2023/12/19 07:00:06;;;;;;;62.13;24.63;;;-1.00;99.90;;;;;;5011734;28;20044;-62
2023/12/19 07:02:35;;;;;;;44.45;19.23;;;-0.90;99.90;;;;;;5013668;28;20048;-61
2023/12/19 07:05:03;;;;;;;24.95;11.07;;;-0.80;99.90;;;;;;5011717;28;20120;-61
2023/12/19 07:07:31;;;;;;;28.23;10.68;;;-0.80;99.90;;;;;;5011647;28;20164;-63
2023/12/19 07:09:58;;;;;;;18.10;8.60;;;-0.90;99.90;;;;;;5014515;28;20048;-64
2023/12/19 07:12:25;;;;;;;24.52;9.18;;;-0.80;99.90;;;;;;5012113;28;20549;-63
2023/12/19 07:14:52;;;;;;;;;;;-0.90;99.90;;;;;;5011388;28;20129;-62
2023/12/19 07:17:18;;;;;;;17.70;9.35;;;-0.80;99.90;;;;;;5010666;28;19930;-63
2023/12/19 07:19:45;;;;;;;18.50;8.88;;;-0.80;99.90;;;;;;5010045;28;20045;-62
2023/12/19 07:22:12;;;;;;;18.63;8.60;;;-0.70;99.90;;;;;;4999839;28;20117;-62
2023/12/19 07:24:40;;;;;;;19.45;8.98;;;-0.70;99.90;;;;;;5007251;28;20066;-61
2023/12/19 07:27:06;;;;;;;18.60;7.38;;;-0.70;99.90;;;;;;5012731;28;20069;-62
2023/12/19 07:29:33;;;;;;;16.23;8.85;;;-0.70;99.90;;;;;;5013178;28;20038;-61
2023/12/19 07:32:00;;;;;;;17.70;8.32;;;-0.60;99.90;;;;;;5006738;28;20038;-63
2023/12/19 07:34:27;;;;;;;;;;;-0.60;99.90;;;;;;5013678;28;20458;-62
2023/12/19 07:36:54;;;;;;;13.95;6.53;;;-0.70;99.90;;;;;;5012934;28;20289;-62
2023/12/19 07:39:21;;;;;;;26.92;10.20;;;-0.90;99.90;;;;;;5011061;28;20042;-62
2023/12/19 07:41:48;;;;;;;36.97;12.00;;;-1.00;99.90;;;;;;5013357;28;20049;-62
2023/12/19 07:44:16;;;;;;;24.42;10.73;;;-1.00;99.90;;;;;;5012580;28;20403;-61
2023/12/19 07:46:43;;;;;;;25.23;11.75;;;-0.90;99.90;;;;;;5012846;28;20042;-62
2023/12/19 07:49:10;;;;;;;25.55;11.60;;;-0.80;99.90;;;;;;5010766;28;20126;-62
2023/12/19 07:51:37;;;;;;;28.88;12.23;;;-0.70;99.90;;;;;;5012772;28;20056;-61
2023/12/19 07:54:04;;;;;;;29.75;14.82;;;-0.60;99.90;;;;;;5012485;28;20450;-62
2023/12/19 07:56:31;;;;;;;19.63;10.50;;;-0.60;99.90;;;;;;5010744;28;20052;-62
2023/12/19 07:58:58;;;;;;;22.10;10.38;;;-0.60;99.90;;;;;;5009052;28;20398;-62
2023/12/19 08:01:25;;;;;;;22.95;10.90;;;-0.60;99.90;;;;;;5012744;28;20061;-62
2023/12/19 08:03:52;;;;;;;17.23;9.35;;;-0.60;99.90;;;;;;5012968;28;20500;-62
2023/12/19 08:06:19;;;;;;;16.30;9.25;;;-0.60;99.90;;;;;;5010622;28;20512;-62
2023/12/19 08:08:49;;;;;;;15.40;8.20;;;-0.60;99.90;;;;;;5004610;28;20045;-63
2023/12/19 08:11:17;;;;;;;16.52;8.70;;;-0.50;99.90;;;;;;5012543;28;20052;-62
2023/12/19 08:13:44;;;;;;;20.52;10.02;;;-0.50;99.90;;;;;;5012042;28;20045;-61
2023/12/19 08:16:11;;;;;;;19.75;9.05;;;-0.50;99.90;;;;;;5012358;28;20042;-62
2023/12/19 08:18:38;;;;;;;17.40;8.77;;;-0.50;99.90;;;;;;5006885;28;20495;-61
2023/12/19 08:21:05;;;;;;;23.27;9.25;;;-0.50;99.90;;;;;;5012571;28;20038;-62
2023/12/19 08:23:32;;;;;;;15.65;7.78;;;-0.40;99.90;;;;;;5003428;28;20046;-62
2023/12/19 08:25:59;;;;;;;14.73;7.35;;;-0.40;99.90;;;;;;5012258;28;20053;-62
2023/12/19 08:28:25;;;;;;;17.10;8.25;;;-0.20;99.90;;;;;;5010990;28;20049;-62
2023/12/19 08:30:52;;;;;;;13.02;7.40;;;-0.10;99.90;;;;;;5006376;28;20064;-63
2023/12/19 08:33:19;;;;;;;10.32;6.07;;;-0.10;99.90;;;;;;5007397;28;20116;-62
2023/12/19 08:35:48;;;;;;;13.65;6.47;;;0.00;99.90;;;;;;5006161;28;20491;-62
2023/12/19 08:38:15;;;;;;;10.82;6.20;;;0.00;99.90;;;;;;5011365;28;20054;-61
2023/12/19 08:40:42;;;;;;;13.25;6.85;;;0.00;99.90;;;;;;5011912;28;20057;-62
2023/12/19 08:43:09;;;;;;;18.08;7.80;;;0.00;99.90;;;;;;5004232;28;20061;-63
2023/12/19 08:45:36;;;;;;;15.48;7.05;;;0.10;99.90;;;;;;5011901;28;20038;-63
2023/12/19 08:48:04;;;;;;;16.90;7.38;;;0.30;99.90;;;;;;5011175;28;20054;-62
2023/12/19 08:50:31;;;;;;;22.20;8.68;;;0.50;99.90;;;;;;5008737;28;20077;-63
2023/12/19 08:52:58;;;;;;;21.23;9.30;;;0.60;99.90;;;;;;4999528;28;20450;-62
2023/12/19 08:55:25;;;;;;;18.65;8.88;;;0.80;99.90;;;;;;5011430;28;20056;-63
2023/12/19 08:57:52;;;;;;;17.17;8.18;;;0.90;99.90;;;;;;5011769;28;20041;-63
2023/12/19 09:00:21;;;;;;;17.05;8.00;;;1.10;99.90;;;;;;5005386;28;20503;-61
2023/12/19 09:02:48;;;;;;;16.15;7.57;;;1.20;99.90;;;;;;5005770;28;20495;-62
2023/12/19 09:05:16;;;;;;;;;;;1.30;99.90;;;;;;5011551;28;20045;-63
2023/12/19 09:07:46;;;;;;;13.50;5.00;;;1.30;99.90;;;;;;5011518;28;19922;-62
2023/12/19 09:10:14;;;;;;;10.90;5.78;;;1.30;99.90;;;;;;5009676;28;20535;-63
2023/12/19 09:12:42;;;;;;;9.15;5.53;;;1.30;99.90;;;;;;5011694;28;20092;-63
2023/12/19 09:15:10;;;;;;;14.02;5.80;;;1.30;99.90;;;;;;5011220;28;20237;-62
2023/12/19 09:17:38;;;;;;;14.27;6.28;;;1.40;99.90;;;;;;4995924;28;20065;-63
2023/12/19 09:20:05;;;;;;;;;;;1.40;99.90;;;;;;5011899;28;20050;-63
2023/12/19 09:22:32;;;;;;;9.60;5.47;;;1.40;99.90;;;;;;5002040;28;20293;-63
2023/12/19 09:24:59;;;;;;;10.32;5.32;;;1.50;99.90;;;;;;5011215;28;20033;-62
2023/12/19 09:27:26;;;;;;;14.40;6.22;;;1.50;99.90;;;;;;5010790;28;20050;-63
2023/12/19 09:29:53;;;;;;;;;;;1.60;99.90;;;;;;5011945;28;20041;-62
2023/12/19 09:32:21;;;;;;;12.82;5.32;;;1.70;99.90;;;;;;5001239;28;19932;-63
2023/12/19 09:34:49;;;;;;;12.25;5.38;;;1.90;99.90;;;;;;5010968;28;20099;-63
2023/12/19 09:37:17;;;;;;;12.70;5.72;;;2.10;99.90;;;;;;5010971;28;20433;-62
2023/12/19 09:39:47;;;;;;;9.95;5.57;;;2.30;99.90;;;;;;5005873;28;20038;-63
2023/12/19 09:42:19;;;;;;;12.00;6.32;;;2.50;99.90;;;;;;5008396;28;20065;-63
2023/12/19 09:44:47;;;;;;;11.38;6.35;;;2.60;99.90;;;;;;5010707;28;20045;-63
2023/12/19 09:47:23;;;;;;;14.13;6.28;;;2.60;99.90;;;;;;5010616;28;20037;-62
2023/12/19 09:49:57;;;;;;;11.32;5.30;;;2.70;99.90;;;;;;5000173;28;20065;-63
2023/12/19 09:52:25;;;;;;;13.73;5.38;;;2.80;99.90;;;;;;5011166;28;20042;-62
2023/12/19 09:54:52;;;;;;;12.07;5.43;;;2.70;99.90;;;;;;5010969;28;20034;-63
2023/12/19 09:57:20;;;;;;;;;;;2.80;99.90;;;;;;5002085;28;20476;-63
2023/12/19 09:59:47;;;;;;;9.25;4.55;;;2.80;99.90;;;;;;5009709;28;19943;-62
2023/12/19 10:02:24;;;;;;;9.48;4.90;;;2.80;99.90;;;;;;5010485;28;20042;-62
2023/12/19 10:04:52;;;;;;;9.20;4.75;;;2.80;99.90;;;;;;5010837;28;20077;-63
2023/12/19 10:07:19;;;;;;;;;;;2.80;99.90;;;;;;5004295;28;20603;-63
2023/12/19 10:09:56;;;;;;;8.88;4.68;;;2.90;99.90;;;;;;5011054;28;19971;-62
2023/12/19 10:12:27;;;;;;;6.50;3.35;;;3.10;99.90;;;;;;5010237;28;20414;-62
2023/12/19 10:15:13;;;;;;;6.90;4.30;;;3.20;99.90;;;;;;5010778;28;20128;-63
2023/12/19 10:18:01;;;;;;;11.70;4.30;;;3.30;99.90;;;;;;5003104;28;20462;-63
2023/12/19 10:20:28;;;;;;;8.07;4.13;;;3.30;99.90;;;;;;5010545;28;20060;-62
2023/12/19 10:23:09;;;;;;;6.38;4.18;;;3.40;99.90;;;;;;5004270;28;20042;-61
2023/12/19 10:25:36;;;;;;;6.00;3.53;;;3.40;99.90;;;;;;5009914;28;20078;-61
2023/12/19 10:28:13;;;;;;;6.60;3.63;;;3.40;99.90;;;;;;5010793;28;20461;-63
2023/12/19 10:30:42;;;;;;;6.63;3.92;;;3.40;99.90;;;;;;5010232;28;20497;-62
2023/12/19 10:33:10;;;;;;;9.75;3.97;;;3.50;99.90;;;;;;4999236;28;20049;-63
2023/12/19 10:35:44;;;;;;;8.13;3.88;;;3.50;99.90;;;;;;5001749;28;20065;-62
2023/12/19 10:38:11;;;;;;;7.22;4.20;;;3.60;99.90;;;;;;5010065;28;20092;-62
2023/12/19 10:40:38;;;;;;;9.90;4.40;;;3.70;99.90;;;;;;5010418;28;20068;-62
2023/12/19 10:43:05;;;;;;;9.73;3.67;;;3.60;99.90;;;;;;5006062;28;20133;-63
2023/12/19 10:45:34;;;;;;;9.20;3.97;;;3.60;99.90;;;;;;5010007;28;20129;-62
2023/12/19 10:48:00;;;;;;;10.43;4.10;;;3.70;99.90;;;;;;5010132;28;20546;-62
2023/12/19 10:50:28;;;;;;;11.10;4.50;;;3.70;99.90;;;;;;5009797;28;20065;-62
2023/12/19 10:53:00;;;;;;;11.27;5.00;;;3.70;99.90;;;;;;5009063;28;20462;-62
2023/12/19 10:55:32;;;;;;;11.13;4.30;;;3.70;99.90;;;;;;5010850;28;20517;-62
2023/12/19 10:57:59;;;;;;;6.47;3.83;;;3.80;99.90;;;;;;5029489;28;20049;-63
2023/12/19 11:00:26;;;;;;;9.32;3.70;;;3.90;99.90;;;;;;5011794;28;20486;-63
2023/12/19 11:03:11;;;;;;;8.15;3.70;;;4.00;99.90;;;;;;5012888;28;20038;-61
2023/12/19 11:05:46;;;;;;;11.15;3.75;;;4.10;99.90;;;;;;5013283;28;20052;-63
2023/12/19 11:08:15;;;;;;;8.93;3.97;;;4.20;99.90;;;;;;5012873;28;20038;-63
2023/12/19 11:11:05;;;;;;;9.13;3.95;;;4.20;99.90;;;;;;5028512;28;20101;-62
2023/12/19 11:13:33;;;;;;;7.78;3.63;;;4.30;99.90;;;;;;5013404;28;20081;-63
2023/12/19 11:16:03;;;;;;;;;;;4.40;99.90;;;;;;5014148;28;20506;-62
2023/12/19 11:18:51;;;;;;;6.43;3.92;;;4.50;99.90;;;;;;5004587;28;19925;-63
2023/12/19 11:21:56;;;;;;;8.23;3.72;;;4.60;99.90;;;;;;5014185;28;20053;-63
2023/12/19 11:24:40;;;;;;;5.75;3.63;;;4.70;99.90;;;;;;5000620;28;20141;-63
2023/12/19 11:27:17;;;;;;;7.82;3.60;;;4.70;99.90;;;;;;5009448;28;20041;-63
2023/12/19 11:29:55;;;;;;;6.68;3.72;;;4.80;99.90;;;;;;5013124;28;20038;-63
2023/12/19 11:32:31;;;;;;;6.38;3.72;;;4.80;99.90;;;;;;5013206;28;20384;-63
2023/12/19 11:35:08;;;;;;;7.65;3.88;;;4.90;99.90;;;;;;5006233;28;20048;-63
2023/12/19 11:37:35;;;;;;;8.40;3.78;;;4.90;99.90;;;;;;5012895;28;20228;-63
2023/12/19 11:40:08;;;;;;;8.02;3.20;;;4.90;99.90;;;;;;5006698;28;20042;-63
2023/12/19 11:42:38;;;;;;;9.85;3.53;;;4.90;99.90;;;;;;5013427;28;20073;-63
2023/12/19 11:45:17;;;;;;;7.43;4.10;;;4.80;99.90;;;;;;5012877;28;20037;-63
2023/12/19 11:47:47;;;;;;;7.10;4.25;;;4.90;99.90;;;;;;5006248;28;20121;-64
2023/12/19 11:50:40;;;;;;;8.75;3.97;;;4.90;99.90;;;;;;5013211;28;20045;-63
2023/12/19 11:53:07;;;;;;;7.00;4.28;;;5.00;99.90;;;;;;5007177;28;20038;-63
2023/12/19 11:55:34;;;;;;;;;;;5.00;99.90;;;;;;5013027;28;20388;-63
2023/12/19 11:58:08;;;;;;;8.55;4.00;;;5.00;99.90;;;;;;5006152;28;19921;-63
2023/12/19 12:00:35;;;;;;;8.05;4.55;;;5.00;99.90;;;;;;5012494;28;20545;-62
2023/12/19 12:03:07;;;;;;;8.00;4.22;;;5.00;99.90;;;;;;5013062;28;20097;-63
2023/12/19 12:05:34;;;;;;;6.97;4.20;;;5.00;99.90;;;;;;4997055;28;20054;-63
2023/12/19 12:08:01;;;;;;;6.85;3.85;;;5.10;99.90;;;;;;5012536;28;20128;-63
2023/12/19 12:10:28;;;;;;;6.05;3.80;;;5.10;99.90;;;;;;5012264;28;20059;-62
2023/12/19 12:13:01;;;;;;;8.23;3.90;;;5.10;99.90;;;;;;5011859;28;20193;-63
2023/12/19 12:15:28;;;;;;;4.85;2.88;;;5.10;99.90;;;;;;5012202;28;20552;-62
2023/12/19 12:18:03;;;;;;;6.68;3.45;;;5.10;99.90;;;;;;5012062;28;20049;-63
2023/12/19 12:20:34;;;;;;;7.90;4.05;;;5.20;99.90;;;;;;5012560;28;20046;-63
2023/12/19 12:23:03;;;;;;;12.43;5.97;;;5.30;99.90;;;;;;5001846;28;20046;-63
2023/12/19 12:25:32;;;;;;;11.23;5.82;;;5.30;99.90;;;;;;5008763;28;20061;-63
2023/12/19 12:28:07;;;;;;;13.98;7.05;;;5.30;99.90;;;;;;5011141;28;20045;-63
2023/12/19 12:30:34;;;;;;;15.02;6.50;;;5.40;99.90;;;;;;5011274;28;20049;-63
2023/12/19 12:33:02;;;;;;;;;;;5.50;99.90;;;;;;5006257;28;20069;-64
2023/12/19 12:35:35;;;;;;;6.35;3.47;;;5.60;99.90;;;;;;5011645;28;19929;-64
2023/12/19 12:38:07;;;;;;;10.68;3.97;;;5.60;99.90;;;;;;5012371;28;20060;-63
2023/12/19 12:40:34;;;;;;;6.97;3.65;;;5.60;99.90;;;;;;5002732;28;20053;-63
2023/12/19 12:43:51;;;;;;;13.65;4.45;;;5.60;99.90;;;;;;5012076;28;20116;-63
2023/12/19 12:46:24;;;;;;;6.15;3.25;;;5.60;99.90;;;;;;5007046;28;20124;-63
2023/12/19 12:48:51;;;;;;;14.13;3.55;;;5.60;99.90;;;;;;5008688;28;20034;-63
2023/12/19 12:51:23;;;;;;;8.93;4.65;;;5.70;99.90;;;;;;5012096;28;20104;-63
2023/12/19 12:54:00;;;;;;;7.60;4.75;;;5.70;99.90;;;;;;5011149;28;20889;-64